Time;durP1;ratioP1;P1;durP2;ratioP2;P2;SDS_P1;SDS_P2;PMS_P1;PMS_P2;Temp;Humidity;BMP_temperature;BMP_pressure;BME280_temperature;BME280_humidity;BME280_pressure;Samples;Min_cycle;Max_cycle;Signal;HPM_P1;HPM_P2
2022/06/11 00:00:43;;;;;;;22.00;14.53;;;;;;;18.58;100.00;94316.94;6098169;23;20392;-83
2022/06/11 00:03:11;;;;;;;19.00;15.23;;;;;;;18.62;100.00;94320.03;6098648;23;20403;-82
2022/06/11 00:05:38;;;;;;;20.83;14.17;;;;;;;18.61;100.00;94329.03;6098329;23;20858;-82
2022/06/11 00:08:05;;;;;;;21.70;14.93;;;;;;;18.52;100.00;94325.69;6098281;23;20418;-82
2022/06/11 00:10:32;;;;;;;22.00;15.53;;;;;;;18.58;100.00;94325.75;6097949;23;20407;-82
2022/06/11 00:12:59;;;;;;;19.43;16.87;;;;;;;18.65;100.00;94335.63;6097692;23;20439;-82
2022/06/11 00:15:27;;;;;;;18.90;15.13;;;;;;;18.54;100.00;94335.13;6071908;23;20409;-82
2022/06/11 00:17:56;;;;;;;18.50;15.70;;;;;;;18.54;100.00;94335.13;6024714;23;20403;-82
2022/06/11 00:20:23;;;;;;;17.97;16.07;;;;;;;18.58;100.00;94331.06;6098203;23;20733;-82
2022/06/11 00:22:51;;;;;;;16.13;14.13;;;;;;;18.55;100.00;94330.63;6097621;23;20740;-82
2022/06/11 00:25:19;;;;;;;17.87;15.97;;;;;;;18.52;100.00;94326.53;6098346;23;20930;-82
2022/06/11 00:27:47;;;;;;;18.10;14.57;;;;;;;18.56;100.00;94333.09;6098025;23;20423;-82
2022/06/11 00:30:14;;;;;;;16.77;13.80;;;;;;;18.60;100.00;94328.22;6098708;23;20517;-82
2022/06/11 00:32:42;;;;;;;18.13;14.70;;;;;;;18.61;100.00;94335.16;6047968;23;20403;-83
2022/06/11 00:35:11;;;;;;;19.70;15.57;;;;;;;18.64;100.00;94329.50;6097719;23;20398;-82
2022/06/11 00:37:38;;;;;;;19.73;14.90;;;;;;;18.66;100.00;94332.78;6097836;23;20411;-82
2022/06/11 00:40:09;;;;;;;15.57;13.83;;;;;;;18.69;100.00;94339.53;6098226;23;21107;-82
2022/06/11 00:42:37;;;;;;;15.57;13.93;;;;;;;18.72;100.00;94333.84;6098124;23;20392;-82
2022/06/11 00:45:14;;;;;;;18.03;14.80;;;;;;;18.74;100.00;94339.78;6048389;23;20973;-82
2022/06/11 00:47:41;;;;;;;15.53;13.83;;;;;;;18.71;100.00;94326.88;6024538;23;20410;-82
2022/06/11 00:50:22;;;;;;;16.93;15.23;;;;;;;18.79;100.00;94329.38;6097831;23;20733;-83
2022/06/11 00:52:50;;;;;;;17.60;14.67;;;;;;;18.82;100.00;94332.50;6098290;23;20405;-83
2022/06/11 00:55:22;;;;;;;16.37;13.33;;;;;;;18.84;100.00;94329.66;6097643;23;20903;-83
2022/06/11 00:58:03;;;;;;;17.67;15.07;;;;;;;18.85;100.00;94320.66;6049112;23;20410;-83
2022/06/11 01:00:34;;;;;;;16.83;15.03;;;;;;;18.87;100.00;94324.75;6098042;23;20886;-82
2022/06/11 01:03:02;;;;;;;15.67;13.90;;;;;;;18.86;100.00;94327.63;6097793;23;20749;-83
2022/06/11 01:05:37;;;;;;;17.87;14.13;;;;;;;18.87;100.00;94324.75;6097484;23;20490;-82
2022/06/11 01:08:49;;;;;;;15.90;14.20;;;;;;;18.90;100.00;94330.69;6097461;23;20784;-83
2022/06/11 01:11:40;;;;;;;14.20;12.77;;;;;;;18.90;100.00;94331.53;5981320;24;20406;-83
2022/06/11 01:14:23;;;;;;;15.10;13.50;;;;;;;18.90;100.00;94318.22;5980210;24;20463;-83
2022/06/11 01:17:05;;;;;;;15.70;13.57;;;;;;;18.94;100.00;94319.47;5981184;24;20417;-83
2022/06/11 01:20:01;;;;;;;14.40;12.87;;;;;;;18.96;100.00;94319.28;5981124;24;20407;-83
2022/06/11 01:22:49;;;;;;;14.77;12.60;;;;;;;18.95;100.00;94323.78;5981856;24;20511;-83
2022/06/11 01:25:29;;;;;;;13.30;11.90;;;;;;;18.96;100.00;94319.28;5981051;24;20449;-83
2022/06/11 01:28:18;;;;;;;13.17;11.80;;;;;;;18.98;100.00;94320.72;5981121;24;20898;-82
2022/06/11 01:30:52;;;;;;;12.00;10.80;;;;;;;18.97;100.00;94318.25;5981110;24;20408;-82
2022/06/11 01:33:23;;;;;;;14.03;11.30;;;;;;;18.98;100.00;94323.38;5981083;24;20402;-82
2022/06/11 01:36:01;;;;;;;12.80;11.50;;;;;;;18.99;100.00;94322.38;5981024;24;21032;-82
2022/06/11 01:45:23;;;;;;;13.20;11.90;;;;;;;18.88;100.00;94330.91;6097242;23;20426;-82
2022/06/11 01:47:53;;;;;;;12.50;11.20;;;;;;;18.87;100.00;94334.56;6097230;23;20483;-82
2022/06/11 01:50:23;;;;;;;12.87;11.10;;;;;;;18.84;100.00;94332.31;6097277;23;21373;-82
2022/06/11 01:53:14;;;;;;;11.87;10.67;;;;;;;18.86;100.00;94331.09;6097708;23;20395;-82
2022/06/11 01:55:58;;;;;;;12.83;11.40;;;;;;;18.86;100.00;94325.78;6097222;23;20415;-82
2022/06/11 01:58:40;;;;;;;14.87;12.60;;;;;;;18.88;100.00;94328.25;6097277;23;20391;-82
2022/06/11 02:01:14;;;;;;;18.57;11.80;;;;;;;18.89;100.00;94335.19;6097294;23;20402;-82
2022/06/11 02:03:52;;;;;;;12.97;11.20;;;;;;;18.90;100.00;94334.19;6097713;23;20395;-82
2022/06/11 02:06:33;;;;;;;14.73;11.77;;;;;;;18.85;100.00;94332.09;6097613;23;20419;-82
2022/06/11 02:09:10;;;;;;;12.70;11.43;;;;;;;18.80;100.00;94331.06;6097507;23;20399;-82
2022/06/11 02:11:41;;;;;;;13.17;11.87;;;;;;;18.78;100.00;94327.75;6097016;23;20406;-81
2022/06/11 02:14:18;;;;;;;12.27;11.00;;;;;;;18.75;100.00;94328.94;6097001;23;20437;-81
2022/06/11 02:16:49;;;;;;;12.13;10.93;;;;;;;18.78;100.00;94330.41;6099068;23;20477;-84
2022/06/11 02:19:21;;;;;;;11.87;10.70;;;;;;;18.77;100.00;94328.75;6098999;23;20486;-82
2022/06/11 02:21:54;;;;;;;12.83;11.53;;;;;;;18.79;100.00;94337.34;6101475;23;20406;-82
2022/06/11 02:24:25;;;;;;;11.30;10.20;;;;;;;18.76;100.00;94335.91;6099142;23;20474;-81
2022/06/11 02:26:55;;;;;;;12.20;11.00;;;;;;;18.78;100.00;94335.72;6099059;23;20417;-81
2022/06/11 02:29:24;;;;;;;12.00;10.80;;;;;;;18.77;100.00;94328.75;6099473;23;20439;-82
2022/06/11 02:31:53;;;;;;;12.00;10.80;;;;;;;18.78;100.00;94335.72;6099031;23;20905;-81
2022/06/11 02:34:24;;;;;;;12.33;11.00;;;;;;;18.73;100.00;94333.63;6099080;23;20415;-81
2022/06/11 02:36:59;;;;;;;13.10;11.70;;;;;;;18.79;100.00;94342.66;6098902;23;20427;-82
2022/06/11 02:39:26;;;;;;;11.60;10.47;;;;;;;18.78;100.00;94341.03;6098928;23;20736;-82
2022/06/11 02:41:53;;;;;;;11.90;10.43;;;;;;;18.80;100.00;94339.84;6099058;23;20404;-82
2022/06/11 02:44:20;;;;;;;13.00;9.97;;;;;;;18.84;100.00;94333.13;6098547;23;20469;-82
2022/06/11 02:46:48;;;;;;;11.90;10.60;;;;;;;18.86;100.00;94338.25;6048512;23;20414;-82
2022/06/11 02:49:18;;;;;;;11.50;10.40;;;;;;;18.90;100.00;94333.34;6098603;23;20407;-82
2022/06/11 02:51:48;;;;;;;11.50;10.30;;;;;;;18.88;100.00;94333.56;6098994;23;20863;-83
2022/06/11 02:54:16;;;;;;;11.00;9.93;;;;;;;18.91;100.00;94335.00;6098777;23;20394;-82
2022/06/11 02:56:43;;;;;;;11.57;10.37;;;;;;;18.89;100.00;94327.22;6098944;23;20403;-82
2022/06/11 02:59:11;;;;;;;11.23;10.17;;;;;;;18.86;100.00;94328.44;6098830;23;20411;-82
2022/06/11 03:01:39;;;;;;;11.47;9.97;;;;;;;18.88;100.00;94334.38;6098921;23;20403;-82
2022/06/11 03:04:06;;;;;;;11.40;10.27;;;;;;;18.90;100.00;94339.50;6098395;23;20410;-83
2022/06/11 03:06:34;;;;;;;12.00;9.90;;;;;;;18.93;100.00;94344.44;6100571;23;20407;-89
2022/06/11 03:09:02;;;;;;;12.80;10.30;;;;;;;19.00;100.00;94339.97;6102382;23;20474;-88
2022/06/11 03:11:29;;;;;;;11.47;10.27;;;;;;;19.10;100.00;94345.78;6100450;23;20411;-88
2022/06/11 03:13:56;;;;;;;10.80;9.60;;;;;;;19.18;100.00;94350.09;6100423;23;20993;-89
2022/06/11 03:16:23;;;;;;;11.23;9.93;;;;;;;19.22;100.00;94347.88;6098467;23;20426;-80
2022/06/11 03:18:51;;;;;;;9.37;8.57;;;;;;;19.15;100.00;94348.66;6099200;23;20396;-80
2022/06/11 03:21:18;;;;;;;10.57;9.60;;;;;;;19.13;100.00;94349.88;6098864;23;20886;-80
2022/06/11 03:23:46;;;;;;;11.80;10.60;;;;;;;19.10;100.00;94353.75;6098664;23;20400;-80
2022/06/11 03:26:14;;;;;;;11.93;9.17;;;;;;;19.09;100.00;94360.09;6098156;23;20435;-81
2022/06/11 03:28:42;;;;;;;13.03;9.60;;;;;;;19.08;100.00;94353.13;6024659;23;20457;-81
2022/06/11 03:31:09;;;;;;;10.73;9.63;;;;;;;19.06;100.00;94357.78;6098125;23;20744;-81
2022/06/11 03:33:39;;;;;;;11.23;10.03;;;;;;;19.05;100.00;94361.47;6098170;23;20400;-80
2022/06/11 03:36:09;;;;;;;11.03;9.90;;;;;;;19.01;100.00;94357.56;6098309;23;20394;-80
2022/06/11 03:38:36;;;;;;;10.90;9.80;;;;;;;18.95;100.00;94358.34;6098447;23;20403;-81
2022/06/11 03:41:04;;;;;;;10.53;9.53;;;;;;;18.89;100.00;94359.13;6098543;23;20398;-79
2022/06/11 03:43:33;;;;;;;11.90;10.53;;;;;;;18.82;100.00;94353.78;6098050;23;20910;-78
2022/06/11 03:46:12;;;;;;;11.17;9.37;;;;;;;18.82;100.00;94353.78;6098168;23;20460;-79
2022/06/11 03:48:40;;;;;;;11.37;10.23;;;;;;;18.84;100.00;94356.22;6098509;23;20502;-79
2022/06/11 03:51:07;;;;;;;12.23;8.77;;;;;;;18.85;100.00;94358.69;6098383;23;20410;-79
2022/06/11 03:53:35;;;;;;;10.70;9.70;;;;;;;18.86;100.00;94346.22;6098072;23;20479;-79
2022/06/11 03:56:03;;;;;;;11.03;9.93;;;;;;;18.85;100.00;94348.06;6097966;23;20399;-79
2022/06/11 03:58:30;;;;;;;9.90;8.30;;;;;;;18.83;100.00;94352.75;6098474;23;20395;-79
2022/06/11 04:01:17;;;;;;;10.37;9.30;;;;;;;18.76;100.00;94353.69;6098804;23;20874;-86
2022/06/11 04:03:45;;;;;;;10.27;9.27;;;;;;;18.73;100.00;94349.59;6099070;23;20395;-79
2022/06/11 04:06:13;;;;;;;13.23;11.80;;;;;;;18.71;100.00;94362.25;6090524;23;20509;-79
2022/06/11 04:08:41;;;;;;;15.73;10.10;;;;;;;18.65;100.00;94352.41;6098325;23;20882;-79
2022/06/11 04:11:09;;;;;;;12.73;10.17;;;;;;;18.66;100.00;94354.03;6098299;23;20403;-79
2022/06/11 04:13:38;;;;;;;9.90;9.00;;;;;;;18.64;100.00;94350.75;6097611;23;20805;-79
2022/06/11 04:16:09;;;;;;;11.97;8.70;;;;;;;18.60;100.00;94359.28;6097743;23;20411;-79
2022/06/11 04:18:39;;;;;;;8.40;7.60;;;;;;;18.58;100.00;94359.47;6098144;23;20815;-79
2022/06/11 04:21:10;;;;;;;9.57;8.57;;;;;;;18.58;100.00;94367.44;6098437;23;20415;-79
2022/06/11 04:23:39;;;;;;;8.93;8.03;;;;;;;18.53;100.00;94362.72;6098224;23;20407;-79
2022/06/11 04:26:09;;;;;;;10.00;9.00;;;;;;;18.52;100.00;94371.69;6097670;23;20434;-79
2022/06/11 04:28:37;;;;;;;8.70;7.90;;;;;;;18.47;100.00;94370.59;6098109;23;20514;-79
2022/06/11 04:31:09;;;;;;;9.23;8.33;;;;;;;18.43;100.00;94366.69;6098087;23;20474;-79
2022/06/11 04:47:06;;;;;;;12.53;11.20;;;;;;;20.04;100.00;94385.13;6097696;23;20401;-84
2022/06/11 04:49:34;;;;;;;13.77;12.40;;;;;;;20.29;100.00;94386.22;6097605;23;20395;-83
2022/06/11 04:52:01;;;;;;;12.00;10.70;;;;;;;20.57;100.00;94386.09;6098182;23;20472;-83
2022/06/11 04:54:28;;;;;;;12.50;11.20;;;;;;;20.84;100.00;94383.44;6097626;23;20406;-84
2022/06/11 04:56:56;;;;;;;14.37;12.87;;;;;;;20.89;100.00;94384.47;6097654;23;20399;-84
2022/06/11 04:59:23;;;;;;;14.43;12.70;;;;;;;21.09;100.00;94392.44;6097730;23;20502;-84
2022/06/11 05:01:50;;;;;;;14.77;13.13;;;;;;;21.14;100.00;94390.00;6047484;23;20422;-83
2022/06/11 05:04:18;;;;;;;29.73;24.30;;;;;;;21.29;100.00;94397.78;6097647;23;20443;-82
2022/06/11 05:06:47;;;;;;;18.37;14.20;;;;;;;21.33;100.00;94396.34;6097192;23;20445;-82
2022/06/11 05:09:17;;;;;;;17.13;14.70;;;;;;;21.46;100.00;94401.69;6097775;23;20406;-82
2022/06/11 05:11:45;;;;;;;10.70;9.70;;;;;;;21.50;97.42;94399.41;6097794;23;20395;-83
2022/06/11 05:14:13;;;;;;;14.77;9.00;;;;;;;21.35;94.97;94410.31;6098108;23;20403;-82
2022/06/11 05:16:42;;;;;;;11.47;9.63;;;;;;;20.93;96.23;94401.69;6097830;23;20422;-80
2022/06/11 05:19:10;;;;;;;8.77;7.97;;;;;;;20.63;97.43;94405.78;6097277;23;20403;-82
2022/06/11 05:21:39;;;;;;;8.50;7.80;;;;;;;20.40;99.25;94401.66;6097247;23;20486;-83
2022/06/11 05:24:07;;;;;;;9.47;8.57;;;;;;;20.25;100.00;94410.81;6097237;23;20426;-83
2022/06/11 05:26:37;;;;;;;9.37;8.57;;;;;;;20.05;100.00;94411.56;6098275;23;20449;-84
2022/06/11 05:29:05;;;;;;;10.50;9.40;;;;;;;19.90;100.00;94418.03;6098063;23;20452;-85
2022/06/11 05:31:32;;;;;;;9.43;8.47;;;;;;;19.74;100.00;94417.38;6098172;23;20411;-84
2022/06/11 05:33:59;;;;;;;8.70;7.90;;;;;;;19.61;100.00;94421.81;6097712;23;20399;-86
2022/06/11 05:36:26;;;;;;;10.23;7.00;;;;;;;19.50;100.00;94431.97;6098309;23;20399;-83
2022/06/11 05:38:54;;;;;;;7.73;7.10;;;;;;;19.35;100.00;94427.75;6097464;23;21059;-84
2022/06/11 05:41:21;;;;;;;8.47;6.30;;;;;;;19.23;100.00;94432.81;6097554;23;20396;-81
2022/06/11 05:43:48;;;;;;;7.80;6.93;;;;;;;19.16;100.00;94432.75;6097653;23;20526;-83
2022/06/11 05:46:19;;;;;;;9.50;7.50;;;;;;;19.12;100.00;94441.31;6097483;23;20435;-83
2022/06/11 05:55:50;;;;;;;6.70;6.00;;;;;;;18.96;100.00;94446.91;6097321;23;20376;-82
2022/06/11 05:58:22;;;;;;;6.93;6.23;;;;;;;18.94;100.00;94448.94;6097436;23;20407;-83
2022/06/11 06:00:49;;;;;;;9.70;7.20;;;;;;;18.89;100.00;94446.88;6098815;23;20395;-83
2022/06/11 06:03:16;;;;;;;6.30;5.80;;;;;;;18.84;100.00;94447.44;6097468;23;20419;-85
2022/06/11 06:05:43;;;;;;;9.33;5.70;;;;;;;18.76;100.00;94450.22;6097204;23;20442;-83
2022/06/11 06:08:10;;;;;;;10.40;6.17;;;;;;;18.70;100.00;94456.28;6097327;23;20384;-82
2022/06/11 06:10:37;;;;;;;8.00;7.20;;;;;;;18.74;100.00;94459.41;6097190;23;20478;-83
2022/06/11 06:13:45;;;;;;;8.20;7.27;;;;;;;18.78;100.00;94463.31;6047277;23;20493;-83
2022/06/11 06:15:53;;;;;;;7.93;6.90;;;;;;;18.83;100.00;94460.94;6097167;23;20404;-83
2022/06/11 06:18:21;;;;;;;7.00;5.30;;;;;;;18.90;100.00;94467.13;6097346;23;20398;-83
2022/06/11 06:20:48;;;;;;;6.00;5.40;;;;;;;18.92;100.00;94470.41;6097299;23;20414;-82
2022/06/11 06:23:16;;;;;;;4.17;3.73;;;;;;;18.90;100.00;94466.31;6097220;23;20483;-84
2022/06/11 06:25:43;;;;;;;4.07;3.70;;;;;;;18.91;100.00;94463.44;6096869;23;20522;-82
2022/06/11 06:28:11;;;;;;;3.80;3.50;;;;;;;18.92;100.00;94469.59;6096633;23;20420;-84
2022/06/11 06:30:40;;;;;;;3.87;3.57;;;;;;;18.93;100.00;94463.25;6097709;23;20399;-79
2022/06/11 06:33:06;;;;;;;4.10;3.70;;;;;;;18.96;100.00;94473.50;6097419;23;20414;-81
2022/06/11 06:35:33;;;;;;;3.80;3.50;;;;;;;19.00;100.00;94472.94;6096701;23;20399;-79
2022/06/11 06:38:02;;;;;;;4.00;3.70;;;;;;;19.02;100.00;94468.25;6096633;23;20410;-85
2022/06/11 06:40:29;;;;;;;4.67;4.37;;;;;;;19.11;100.00;94482.25;6096506;23;20780;-79
2022/06/11 06:46:25;;;;;;;5.20;4.70;;;;;;;19.23;100.00;94483.34;6096981;23;20490;-80
2022/06/11 06:48:52;;;;;;;5.47;4.83;;;;;;;19.21;100.00;94473.91;6096577;23;20497;-81
2022/06/11 06:51:19;;;;;;;4.93;4.53;;;;;;;19.27;100.00;94484.59;6096985;23;20405;-81
2022/06/11 06:53:46;;;;;;;3.80;3.50;;;;;;;19.16;100.00;94480.63;6097027;23;20410;-80
2022/06/11 06:56:14;;;;;;;4.17;3.87;;;;;;;19.09;100.00;94479.78;6096785;23;20907;-80
2022/06/11 06:58:41;;;;;;;11.97;4.90;;;;;;;19.23;100.00;94477.22;6097174;23;20410;-80
2022/06/11 07:01:08;;;;;;;4.83;4.40;;;;;;;19.29;100.00;94485.22;6096965;23;20419;-79
2022/06/11 07:03:36;;;;;;;7.60;3.93;;;;;;;19.34;100.00;94484.66;6098304;23;20416;-78
2022/06/11 07:06:04;;;;;;;3.90;3.60;;;;;;;19.39;100.00;94484.91;6024791;23;20775;-79
2022/06/11 07:08:31;;;;;;;4.90;4.50;;;;;;;19.44;100.00;94482.50;6098511;23;20399;-80
2022/06/11 07:10:58;;;;;;;4.07;3.80;;;;;;;19.49;100.00;94477.41;6047887;23;20422;-80
2022/06/11 07:13:25;;;;;;;5.40;4.40;;;;;;;19.47;100.00;94482.09;6098815;23;20501;-80
2022/06/11 07:15:55;;;;;;;4.63;4.33;;;;;;;19.46;100.00;94481.28;6098518;23;20404;-81
2022/06/11 07:18:27;;;;;;;4.13;3.83;;;;;;;19.52;100.00;94484.16;6098201;23;20894;-80
2022/06/11 07:20:59;;;;;;;4.87;4.30;;;;;;;19.52;100.00;94481.50;6098439;23;20410;-82
2022/06/11 07:23:35;;;;;;;4.80;4.40;;;;;;;19.57;100.00;94487.09;6098635;23;20399;-81
2022/06/11 07:26:08;;;;;;;3.93;3.63;;;;;;;19.61;100.00;94485.69;6098531;23;20436;-80
2022/06/11 07:28:41;;;;;;;4.40;4.07;;;;;;;19.68;100.00;94487.38;6098685;23;20447;-81
2022/06/11 07:31:07;;;;;;;5.30;4.50;;;;;;;19.81;100.00;94483.97;6098196;23;20379;-81
2022/06/11 07:33:35;;;;;;;5.93;5.43;;;;;;;19.90;100.00;94489.94;6098258;23;20723;-81
2022/06/11 07:36:04;;;;;;;10.00;5.60;;;;;;;20.02;100.00;94497.19;6098167;23;20889;-81
2022/06/11 07:38:31;;;;;;;7.10;6.40;;;;;;;20.05;100.00;94493.31;6097917;23;20395;-80
2022/06/11 07:40:58;;;;;;;6.27;5.77;;;;;;;20.14;100.00;94497.44;6098474;23;20384;-80
2022/06/11 07:43:24;;;;;;;5.17;4.60;;;;;;;20.22;100.00;94499.13;6048137;23;20412;-80
2022/06/11 07:45:52;;;;;;;6.27;5.77;;;;;;;20.32;100.00;94503.06;6097769;23;20442;-80
2022/06/11 07:48:19;;;;;;;5.67;5.17;;;;;;;20.54;100.00;94501.13;6098245;23;20880;-80
2022/06/11 07:50:49;;;;;;;6.33;5.77;;;;;;;20.66;100.00;94504.03;6097814;23;20404;-80
2022/06/11 07:53:18;;;;;;;4.93;4.50;;;;;;;20.77;99.65;94505.28;6097965;23;20499;-80
2022/06/11 07:55:46;;;;;;;4.57;4.17;;;;;;;20.81;97.34;94499.31;6099067;23;20403;-88
2022/06/11 07:58:15;;;;;;;4.90;4.50;;;;;;;21.00;96.43;94500.41;6100402;23;20424;-87
2022/06/11 08:00:45;;;;;;;5.10;4.53;;;;;;;21.14;91.23;94498.56;6098779;23;20403;-87
2022/06/11 08:03:12;;;;;;;5.13;4.73;;;;;;;21.56;93.06;94492.00;6098333;23;20913;-87
2022/06/11 08:05:41;;;;;;;5.30;4.60;;;;;;;21.94;96.62;94489.47;6098003;23;20423;-88
2022/06/11 08:08:09;;;;;;;10.50;4.80;;;;;;;22.34;93.42;94497.41;6095640;23;20443;-84
2022/06/11 08:10:39;;;;;;;5.50;5.00;;;;;;;22.75;90.25;94495.13;6099126;23;20388;-88
2022/06/11 08:13:08;;;;;;;4.90;4.33;;;;;;;23.09;88.85;94493.09;6099247;23;20487;-87
2022/06/11 08:15:35;;;;;;;5.67;5.20;;;;;;;23.37;88.11;94490.81;6098200;23;20707;-87
2022/06/11 08:18:02;;;;;;;8.43;5.10;;;;;;;23.48;85.65;94494.66;6098731;23;20463;-87
2022/06/11 08:20:31;;;;;;;5.00;4.50;;;;;;;23.54;87.34;94495.66;6097622;23;20439;-86
2022/06/11 08:22:58;;;;;;;5.23;4.63;;;;;;;23.42;85.45;94493.69;6098266;23;20399;-88
2022/06/11 08:25:26;;;;;;;5.73;5.23;;;;;;;23.28;86.48;94484.13;6097646;23;20498;-86
2022/06/11 08:27:56;;;;;;;6.03;4.43;;;;;;;23.18;86.24;94498.00;6098529;23;20961;-88
2022/06/11 08:30:25;;;;;;;6.07;5.50;;;;;;;22.99;84.75;94501.63;6099245;23;20444;-88
2022/06/11 08:32:53;;;;;;;5.17;4.77;;;;;;;22.69;82.11;94493.34;6098047;23;20801;-88
2022/06/11 08:35:26;;;;;;;6.40;5.50;;;;;;;22.56;84.14;94488.88;6098158;23;20491;-88
2022/06/11 08:37:54;;;;;;;5.17;4.67;;;;;;;22.50;82.95;94486.22;6010111;23;20414;-88
2022/06/11 08:40:26;;;;;;;6.07;4.53;;;;;;;22.29;87.00;94486.53;6011866;23;20418;-87
2022/06/11 08:43:00;;;;;;;6.30;5.77;;;;;;;22.06;88.92;94487.84;6004523;23;20426;-87
2022/06/11 08:45:36;;;;;;;6.80;6.10;;;;;;;21.95;87.01;94480.44;6009127;23;20483;-88
2022/06/11 08:48:12;;;;;;;9.50;6.43;;;;;;;21.88;86.35;94480.44;6010153;23;20482;-88
2022/06/11 08:50:56;;;;;;;6.20;5.70;;;;;;;21.79;87.86;94478.22;6010839;23;20431;-87
2022/06/11 08:53:23;;;;;;;5.47;4.97;;;;;;;21.70;88.44;94472.28;6010153;23;20509;-88
2022/06/11 08:55:50;;;;;;;5.10;4.70;;;;;;;21.71;88.47;94473.09;6010241;23;20498;-89
2022/06/11 08:58:28;;;;;;;5.20;4.80;;;;;;;21.64;87.05;94473.91;6011585;23;20505;-90
2022/06/11 09:01:04;;;;;;;5.50;5.07;;;;;;;21.64;85.62;94470.44;6011211;23;20418;-89
2022/06/11 09:03:56;;;;;;;5.63;5.07;;;;;;;21.68;87.35;94470.81;6094125;23;20418;-88
2022/06/11 09:06:53;;;;;;;6.07;5.50;;;;;;;21.45;87.23;94473.97;6097327;23;20479;-87
2022/06/11 09:09:29;;;;;;;6.23;5.73;;;;;;;21.54;89.66;94470.03;6096294;23;20448;-88
2022/06/11 09:12:17;;;;;;;6.67;6.07;;;;;;;21.50;91.08;94461.63;6098911;23;20421;-88
2022/06/11 09:15:05;;;;;;;14.87;7.30;;;;;;;21.46;91.60;94467.59;6097845;23;20403;-86
2022/06/11 09:17:52;;;;;;;7.70;7.10;;;;;;;21.67;91.01;94466.53;6097728;23;20490;-86
2022/06/11 09:20:33;;;;;;;8.17;7.47;;;;;;;21.85;90.71;94470.19;6098445;23;20412;-84
2022/06/11 09:23:29;;;;;;;8.00;7.20;;;;;;;22.05;89.77;94470.16;6097348;23;20399;-84
2022/06/11 09:26:00;;;;;;;6.40;5.90;;;;;;;;;;6023280;23;20399;-84
2022/06/11 09:28:39;;;;;;;5.50;5.00;;;;;;;22.58;88.27;94464.59;6097462;23;20933;-83
2022/06/11 09:31:13;;;;;;;6.33;5.77;;;;;;;22.73;86.45;94466.97;6047469;23;20403;-85
2022/06/11 09:33:48;;;;;;;7.50;5.37;;;;;;;22.78;84.60;94475.97;6097808;23;20505;-85
2022/06/11 09:36:22;;;;;;;7.83;6.10;;;;;;;22.89;84.85;94477.19;6097703;23;20411;-85
2022/06/11 09:38:58;;;;;;;4.93;4.53;;;;;;;23.01;83.12;94480.00;6097696;23;20400;-85
2022/06/11 09:41:35;;;;;;;6.80;5.80;;;;;;;22.96;80.08;94483.31;6097470;23;20414;-84
2022/06/11 09:44:17;;;;;;;5.67;5.17;;;;;;;22.95;80.74;94483.53;6023264;23;20412;-85
2022/06/11 09:46:54;;;;;;;5.20;4.70;;;;;;;22.80;80.73;94473.09;6097024;23;20467;-85
2022/06/11 09:49:30;;;;;;;5.70;5.20;;;;;;;22.68;79.54;94494.38;6047217;23;20482;-84
2022/06/11 09:52:05;;;;;;;5.77;5.27;;;;;;;22.56;81.70;94488.06;6097554;23;20396;-83
2022/06/11 09:54:53;;;;;;;7.93;6.40;;;;;;;22.29;82.91;94489.22;6097630;23;20410;-85
2022/06/11 09:57:34;;;;;;;7.10;6.50;;;;;;;22.16;83.18;94482.03;6097169;23;20400;-85
2022/06/11 10:00:07;;;;;;;8.80;6.93;;;;;;;21.92;84.69;94479.00;6097297;23;20400;-84
2022/06/11 10:02:42;;;;;;;7.17;6.47;;;;;;;21.70;85.67;94491.00;6097085;23;20415;-84
2022/06/11 10:05:19;;;;;;;11.03;6.80;;;;;;;21.59;87.06;94494.28;6096997;23;21041;-83
2022/06/11 10:07:53;;;;;;;6.60;6.00;;;;;;;21.29;87.81;94484.03;6094676;23;20439;-84
2022/06/11 10:10:25;;;;;;;6.30;5.63;;;;;;;21.19;88.85;94496.13;6023408;23;20439;-83
2022/06/11 10:12:56;;;;;;;10.20;6.33;;;;;;;20.89;87.81;94493.81;6096664;23;20421;-83
2022/06/11 10:15:28;;;;;;;4.67;4.27;;;;;;;20.75;88.97;94496.66;6096230;23;20403;-84
2022/06/11 10:18:00;;;;;;;7.00;5.13;;;;;;;20.61;91.88;94487.81;6096399;23;20483;-84
2022/06/11 10:20:32;;;;;;;6.33;5.77;;;;;;;20.47;94.05;94496.78;6096680;23;20398;-84
2022/06/11 10:23:06;;;;;;;7.07;6.30;;;;;;;20.46;95.55;94495.97;6097062;23;20391;-84
2022/06/11 10:25:36;;;;;;;5.30;4.90;;;;;;;20.35;93.61;94500.00;6096428;23;20499;-84
2022/06/11 10:28:10;;;;;;;4.93;4.53;;;;;;;20.42;93.86;94500.88;6096004;23;20489;-84
2022/06/11 10:30:50;;;;;;;5.30;4.90;;;;;;;20.45;90.52;94504.16;6096254;23;20407;-84
2022/06/11 10:33:25;;;;;;;4.77;4.37;;;;;;;20.60;91.48;94507.50;6022132;23;20419;-84
2022/06/11 10:35:59;;;;;;;4.43;3.90;;;;;;;20.72;90.15;94508.56;6096558;23;20412;-84
2022/06/11 10:38:40;;;;;;;4.17;3.60;;;;;;;20.80;91.78;94513.69;6098101;23;20414;-84
2022/06/11 10:41:15;;;;;;;4.90;4.50;;;;;;;20.87;91.74;94509.22;6098683;23;20396;-84
2022/06/11 10:43:48;;;;;;;4.73;4.37;;;;;;;20.80;91.41;94527.03;6097870;23;20422;-84
2022/06/11 10:46:15;;;;;;;6.33;5.73;;;;;;;20.63;93.95;94521.25;6098400;23;20481;-84
2022/06/11 10:48:43;;;;;;;11.43;5.70;;;;;;;20.35;95.54;94521.31;6025064;23;20530;-84
2022/06/11 10:51:20;;;;;;;5.00;4.60;;;;;;;20.26;96.52;94525.19;6098485;23;20770;-84
2022/06/11 10:54:07;;;;;;;8.20;4.10;;;;;;;20.11;96.32;94535.16;6099381;23;20482;-84
2022/06/11 10:56:41;;;;;;;4.33;3.93;;;;;;;19.91;97.97;94531.53;6098276;23;20466;-84
2022/06/11 10:59:21;;;;;;;7.80;4.80;;;;;;;19.82;99.21;94532.72;6097893;23;20411;-83
2022/06/11 11:01:53;;;;;;;4.30;3.90;;;;;;;19.84;99.84;94531.50;6098498;23;20954;-84
2022/06/11 11:04:31;;;;;;;5.07;4.57;;;;;;;19.93;100.00;94529.50;6097363;23;21229;-84
2022/06/11 11:07:13;;;;;;;4.40;4.10;;;;;;;20.18;100.00;94524.50;6097238;23;20450;-82
2022/06/11 11:09:40;;;;;;;4.33;3.93;;;;;;;20.31;99.71;94533.41;6097608;23;20410;-80
2022/06/11 11:12:18;;;;;;;4.13;3.83;;;;;;;20.37;99.95;94535.28;6096550;23;20406;-80
2022/06/11 11:14:47;;;;;;;4.23;3.93;;;;;;;20.42;100.00;94532.84;6097857;23;20506;-81
2022/06/11 11:17:20;;;;;;;4.43;4.03;;;;;;;20.56;100.00;94538.25;6095977;23;20407;-81
2022/06/11 11:22:33;;;;;;;4.10;3.50;;;;;;;20.86;99.89;94536.91;6096070;23;20407;-81
2022/06/11 11:25:01;;;;;;;4.63;4.23;;;;;;;20.90;100.00;94529.31;6046742;23;20891;-80
2022/06/11 11:27:32;;;;;;;7.20;5.00;;;;;;;20.94;99.81;94526.03;6096955;23;20501;-81
2022/06/11 11:30:09;;;;;;;4.33;3.90;;;;;;;20.94;99.70;94526.03;6097348;23;20435;-81
2022/06/11 11:32:39;;;;;;;4.60;4.20;;;;;;;20.96;99.87;94532.00;6097728;23;20497;-81
2022/06/11 11:35:17;;;;;;;5.70;4.73;;;;;;;20.99;99.23;94528.09;6097741;23;20515;-81
2022/06/11 11:37:45;;;;;;;5.53;5.07;;;;;;;20.98;98.59;94534.47;6097366;23;20491;-80
2022/06/11 11:40:25;;;;;;;5.63;5.00;;;;;;;20.90;98.77;94532.00;6096607;23;20752;-80
2022/06/11 11:42:56;;;;;;;4.47;4.17;;;;;;;20.96;99.05;94525.84;6096803;23;20910;-81
2022/06/11 11:45:26;;;;;;;3.90;3.60;;;;;;;20.98;98.36;94526.47;6097148;23;20437;-81
2022/06/11 11:47:55;;;;;;;4.87;4.40;;;;;;;21.02;98.26;94523.19;6096224;23;20454;-81
2022/06/11 11:50:28;;;;;;;8.60;4.43;;;;;;;21.09;98.23;94517.84;6096153;23;20449;-81
2022/06/11 11:53:03;;;;;;;4.90;4.50;;;;;;;21.13;97.49;94515.63;6096778;23;20411;-81
2022/06/11 11:55:33;;;;;;;4.27;3.97;;;;;;;21.18;97.31;94519.31;6098236;23;20805;-81
2022/06/11 11:58:02;;;;;;;4.30;3.90;;;;;;;21.15;93.93;94518.91;6097534;23;20411;-80
2022/06/11 12:00:33;;;;;;;3.80;3.60;;;;;;;21.23;95.19;94518.69;6097966;23;20439;-80
2022/06/11 12:03:05;;;;;;;4.20;3.90;;;;;;;21.43;97.21;94514.22;6048285;23;20412;-81
2022/06/11 12:05:40;;;;;;;4.27;3.97;;;;;;;21.52;94.28;94512.16;6097346;23;21166;-80
2022/06/11 12:08:17;;;;;;;4.80;4.40;;;;;;;21.64;95.08;94508.63;6097949;23;20439;-81
2022/06/11 12:10:49;;;;;;;5.03;4.63;;;;;;;21.69;92.99;94516.06;6097862;23;20418;-81
2022/06/11 12:13:23;;;;;;;5.63;4.23;;;;;;;21.72;92.66;94515.63;6097825;23;20404;-80
2022/06/11 12:15:56;;;;;;;5.47;5.00;;;;;;;21.78;94.33;94514.81;6097267;23;20883;-80